sensor_id;sensor_type;location;lat;lon;timestamp;P1;durP1;ratioP1;P2;durP2;ratioP2
72037;SDS011;59900;50.788;12.904;2022-08-03T00:01:39;8.17;;;4.50;;
72037;SDS011;59900;50.788;12.904;2022-08-03T00:04:06;8.07;;;5.03;;
72037;SDS011;59900;50.788;12.904;2022-08-03T00:06:32;7.43;;;4.65;;
72037;SDS011;59900;50.788;12.904;2022-08-03T00:08:57;7.37;;;5.37;;
72037;SDS011;59900;50.788;12.904;2022-08-03T00:11:23;8.30;;;5.60;;
72037;SDS011;59900;50.788;12.904;2022-08-03T00:13:48;8.07;;;5.00;;
72037;SDS011;59900;50.788;12.904;2022-08-03T00:16:14;7.57;;;5.10;;
72037;SDS011;59900;50.788;12.904;2022-08-03T00:18:40;7.20;;;4.63;;
72037;SDS011;59900;50.788;12.904;2022-08-03T00:21:05;8.03;;;4.73;;
72037;SDS011;59900;50.788;12.904;2022-08-03T00:23:30;7.63;;;5.43;;
72037;SDS011;59900;50.788;12.904;2022-08-03T00:25:56;8.80;;;5.60;;
72037;SDS011;59900;50.788;12.904;2022-08-03T00:28:21;7.97;;;5.27;;
72037;SDS011;59900;50.788;12.904;2022-08-03T00:30:47;8.25;;;5.57;;
72037;SDS011;59900;50.788;12.904;2022-08-03T00:33:12;10.40;;;5.73;;
72037;SDS011;59900;50.788;12.904;2022-08-03T00:35:37;9.03;;;5.30;;
72037;SDS011;59900;50.788;12.904;2022-08-03T00:38:03;8.57;;;5.67;;
72037;SDS011;59900;50.788;12.904;2022-08-03T00:40:30;7.35;;;5.63;;
72037;SDS011;59900;50.788;12.904;2022-08-03T00:42:56;10.73;;;6.13;;
72037;SDS011;59900;50.788;12.904;2022-08-03T00:45:24;10.52;;;6.22;;
72037;SDS011;59900;50.788;12.904;2022-08-03T00:47:51;10.32;;;6.43;;
72037;SDS011;59900;50.788;12.904;2022-08-03T00:50:17;9.10;;;6.28;;
72037;SDS011;59900;50.788;12.904;2022-08-03T00:52:43;10.27;;;5.93;;
72037;SDS011;59900;50.788;12.904;2022-08-03T00:55:10;10.53;;;6.27;;
72037;SDS011;59900;50.788;12.904;2022-08-03T00:57:35;11.98;;;5.68;;
72037;SDS011;59900;50.788;12.904;2022-08-03T01:00:01;8.93;;;5.75;;
72037;SDS011;59900;50.788;12.904;2022-08-03T01:02:29;8.70;;;6.37;;
72037;SDS011;59900;50.788;12.904;2022-08-03T01:04:55;8.50;;;5.10;;
72037;SDS011;59900;50.788;12.904;2022-08-03T01:10:02;9.02;;;4.95;;
72037;SDS011;59900;50.788;12.904;2022-08-03T01:12:43;23.10;;;6.70;;
72037;SDS011;59900;50.788;12.904;2022-08-03T01:18:18;7.88;;;5.28;;
72037;SDS011;59900;50.788;12.904;2022-08-03T01:20:50;9.48;;;5.28;;
72037;SDS011;59900;50.788;12.904;2022-08-03T01:32:17;7.78;;;5.20;;
72037;SDS011;59900;50.788;12.904;2022-08-03T01:34:47;8.55;;;5.32;;
72037;SDS011;59900;50.788;12.904;2022-08-03T01:37:21;8.82;;;4.85;;
72037;SDS011;59900;50.788;12.904;2022-08-03T01:39:50;7.72;;;5.18;;
72037;SDS011;59900;50.788;12.904;2022-08-03T01:42:20;8.77;;;4.87;;
72037;SDS011;59900;50.788;12.904;2022-08-03T01:44:46;12.88;;;5.80;;
72037;SDS011;59900;50.788;12.904;2022-08-03T01:47:13;10.18;;;5.38;;
72037;SDS011;59900;50.788;12.904;2022-08-03T01:49:43;7.90;;;5.28;;
72037;SDS011;59900;50.788;12.904;2022-08-03T01:52:10;7.60;;;5.00;;
72037;SDS011;59900;50.788;12.904;2022-08-03T01:54:41;8.93;;;5.47;;
72037;SDS011;59900;50.788;12.904;2022-08-03T01:57:08;7.70;;;5.45;;
72037;SDS011;59900;50.788;12.904;2022-08-03T01:59:34;9.57;;;5.40;;
72037;SDS011;59900;50.788;12.904;2022-08-03T02:02:03;7.55;;;5.18;;
72037;SDS011;59900;50.788;12.904;2022-08-03T02:04:29;7.50;;;5.20;;
72037;SDS011;59900;50.788;12.904;2022-08-03T02:07:01;8.10;;;4.80;;
72037;SDS011;59900;50.788;12.904;2022-08-03T02:09:26;9.88;;;5.30;;
72037;SDS011;59900;50.788;12.904;2022-08-03T02:11:54;8.30;;;5.53;;
72037;SDS011;59900;50.788;12.904;2022-08-03T02:14:21;8.40;;;6.10;;
72037;SDS011;59900;50.788;12.904;2022-08-03T02:16:48;9.00;;;5.95;;
72037;SDS011;59900;50.788;12.904;2022-08-03T02:19:14;9.50;;;5.43;;
72037;SDS011;59900;50.788;12.904;2022-08-03T02:21:42;10.93;;;5.57;;
72037;SDS011;59900;50.788;12.904;2022-08-03T02:24:09;8.55;;;5.88;;
72037;SDS011;59900;50.788;12.904;2022-08-03T02:26:34;8.37;;;5.20;;
72037;SDS011;59900;50.788;12.904;2022-08-03T02:29:10;8.70;;;5.80;;
72037;SDS011;59900;50.788;12.904;2022-08-03T02:31:39;11.07;;;5.97;;
72037;SDS011;59900;50.788;12.904;2022-08-03T02:34:08;7.82;;;5.72;;
72037;SDS011;59900;50.788;12.904;2022-08-03T02:36:37;8.88;;;5.97;;
72037;SDS011;59900;50.788;12.904;2022-08-03T02:39:04;9.60;;;5.88;;
72037;SDS011;59900;50.788;12.904;2022-08-03T02:41:38;9.10;;;5.97;;
72037;SDS011;59900;50.788;12.904;2022-08-03T02:44:07;8.80;;;6.18;;
72037;SDS011;59900;50.788;12.904;2022-08-03T02:46:36;13.18;;;6.15;;
72037;SDS011;59900;50.788;12.904;2022-08-03T02:49:03;11.27;;;5.85;;
72037;SDS011;59900;50.788;12.904;2022-08-03T02:51:32;12.57;;;6.25;;
72037;SDS011;59900;50.788;12.904;2022-08-03T02:54:00;14.57;;;6.63;;
72037;SDS011;59900;50.788;12.904;2022-08-03T02:56:27;14.75;;;6.40;;
72037;SDS011;59900;50.788;12.904;2022-08-03T02:58:54;10.57;;;6.03;;
72037;SDS011;59900;50.788;12.904;2022-08-03T03:01:22;9.88;;;5.72;;
72037;SDS011;59900;50.788;12.904;2022-08-03T03:03:49;10.73;;;5.75;;
72037;SDS011;59900;50.788;12.904;2022-08-03T03:06:16;12.20;;;5.90;;
72037;SDS011;59900;50.788;12.904;2022-08-03T03:08:43;9.95;;;5.60;;
72037;SDS011;59900;50.788;12.904;2022-08-03T03:11:09;10.32;;;5.53;;
72037;SDS011;59900;50.788;12.904;2022-08-03T03:13:37;7.82;;;5.40;;
72037;SDS011;59900;50.788;12.904;2022-08-03T03:16:04;7.75;;;5.75;;
72037;SDS011;59900;50.788;12.904;2022-08-03T03:18:30;8.17;;;5.77;;
72037;SDS011;59900;50.788;12.904;2022-08-03T03:20:57;7.70;;;5.72;;
72037;SDS011;59900;50.788;12.904;2022-08-03T03:23:23;9.98;;;6.07;;
72037;SDS011;59900;50.788;12.904;2022-08-03T03:25:50;10.45;;;5.82;;
72037;SDS011;59900;50.788;12.904;2022-08-03T03:28:16;9.30;;;5.65;;
72037;SDS011;59900;50.788;12.904;2022-08-03T03:30:42;8.80;;;5.57;;
72037;SDS011;59900;50.788;12.904;2022-08-03T03:33:08;10.00;;;5.60;;
72037;SDS011;59900;50.788;12.904;2022-08-03T03:35:33;9.52;;;5.70;;
72037;SDS011;59900;50.788;12.904;2022-08-03T03:37:58;9.73;;;5.80;;
72037;SDS011;59900;50.788;12.904;2022-08-03T03:40:24;8.13;;;5.50;;
72037;SDS011;59900;50.788;12.904;2022-08-03T03:42:51;9.00;;;5.72;;
72037;SDS011;59900;50.788;12.904;2022-08-03T03:45:16;12.33;;;5.80;;
72037;SDS011;59900;50.788;12.904;2022-08-03T03:47:41;10.27;;;5.65;;
72037;SDS011;59900;50.788;12.904;2022-08-03T03:50:07;8.80;;;5.30;;
72037;SDS011;59900;50.788;12.904;2022-08-03T03:52:34;8.55;;;5.30;;
72037;SDS011;59900;50.788;12.904;2022-08-03T03:55:00;10.23;;;5.23;;
72037;SDS011;59900;50.788;12.904;2022-08-03T03:57:25;8.80;;;5.40;;
72037;SDS011;59900;50.788;12.904;2022-08-03T03:59:51;8.77;;;5.50;;
72037;SDS011;59900;50.788;12.904;2022-08-03T04:02:17;9.20;;;5.43;;
72037;SDS011;59900;50.788;12.904;2022-08-03T04:04:42;8.10;;;5.10;;
72037;SDS011;59900;50.788;12.904;2022-08-03T04:07:26;11.02;;;5.47;;
72037;SDS011;59900;50.788;12.904;2022-08-03T04:10:14;11.88;;;5.25;;
72037;SDS011;59900;50.788;12.904;2022-08-03T04:13:03;6.88;;;5.00;;
72037;SDS011;59900;50.788;12.904;2022-08-03T04:15:34;8.00;;;5.17;;
72037;SDS011;59900;50.788;12.904;2022-08-03T04:18:02;8.45;;;5.65;;
72037;SDS011;59900;50.788;12.904;2022-08-03T04:20:29;8.55;;;5.38;;
72037;SDS011;59900;50.788;12.904;2022-08-03T04:22:57;9.00;;;5.10;;
72037;SDS011;59900;50.788;12.904;2022-08-03T04:25:25;7.30;;;5.22;;
72037;SDS011;59900;50.788;12.904;2022-08-03T04:27:54;6.70;;;4.77;;
72037;SDS011;59900;50.788;12.904;2022-08-03T04:30:23;7.75;;;5.43;;
72037;SDS011;59900;50.788;12.904;2022-08-03T04:32:51;7.90;;;5.80;;
72037;SDS011;59900;50.788;12.904;2022-08-03T04:35:18;8.35;;;5.55;;
72037;SDS011;59900;50.788;12.904;2022-08-03T04:37:45;12.97;;;5.10;;
72037;SDS011;59900;50.788;12.904;2022-08-03T04:40:14;8.15;;;5.18;;
72037;SDS011;59900;50.788;12.904;2022-08-03T04:42:43;7.53;;;5.22;;
72037;SDS011;59900;50.788;12.904;2022-08-03T04:45:12;8.83;;;5.77;;
72037;SDS011;59900;50.788;12.904;2022-08-03T04:47:39;10.48;;;5.20;;
72037;SDS011;59900;50.788;12.904;2022-08-03T04:50:05;8.80;;;5.50;;
72037;SDS011;59900;50.788;12.904;2022-08-03T04:52:32;8.23;;;5.30;;
72037;SDS011;59900;50.788;12.904;2022-08-03T04:54:58;11.48;;;5.38;;
72037;SDS011;59900;50.788;12.904;2022-08-03T04:57:24;7.57;;;4.90;;
72037;SDS011;59900;50.788;12.904;2022-08-03T04:59:49;8.00;;;5.13;;
72037;SDS011;59900;50.788;12.904;2022-08-03T05:02:22;8.13;;;5.30;;
72037;SDS011;59900;50.788;12.904;2022-08-03T05:04:47;8.00;;;5.43;;
72037;SDS011;59900;50.788;12.904;2022-08-03T05:07:14;7.87;;;5.03;;
72037;SDS011;59900;50.788;12.904;2022-08-03T05:09:40;7.43;;;4.90;;
72037;SDS011;59900;50.788;12.904;2022-08-03T05:12:05;7.65;;;5.47;;
72037;SDS011;59900;50.788;12.904;2022-08-03T05:14:32;8.23;;;4.93;;
72037;SDS011;59900;50.788;12.904;2022-08-03T05:16:57;7.53;;;5.10;;
72037;SDS011;59900;50.788;12.904;2022-08-03T05:19:23;7.80;;;5.37;;
72037;SDS011;59900;50.788;12.904;2022-08-03T05:21:48;8.35;;;5.25;;
72037;SDS011;59900;50.788;12.904;2022-08-03T05:24:14;6.93;;;4.80;;
72037;SDS011;59900;50.788;12.904;2022-08-03T05:26:39;7.93;;;5.03;;
72037;SDS011;59900;50.788;12.904;2022-08-03T05:29:04;7.63;;;5.10;;
72037;SDS011;59900;50.788;12.904;2022-08-03T05:31:30;8.93;;;4.78;;
72037;SDS011;59900;50.788;12.904;2022-08-03T05:33:55;7.47;;;5.20;;
72037;SDS011;59900;50.788;12.904;2022-08-03T05:36:21;9.67;;;5.27;;
72037;SDS011;59900;50.788;12.904;2022-08-03T05:38:46;7.00;;;4.90;;
72037;SDS011;59900;50.788;12.904;2022-08-03T05:41:11;9.37;;;4.93;;
72037;SDS011;59900;50.788;12.904;2022-08-03T05:43:36;7.77;;;4.70;;
72037;SDS011;59900;50.788;12.904;2022-08-03T05:46:02;9.53;;;5.30;;
72037;SDS011;59900;50.788;12.904;2022-08-03T05:48:27;7.47;;;4.63;;
72037;SDS011;59900;50.788;12.904;2022-08-03T05:50:52;6.80;;;4.50;;
72037;SDS011;59900;50.788;12.904;2022-08-03T05:53:18;7.47;;;5.00;;
72037;SDS011;59900;50.788;12.904;2022-08-03T05:55:43;8.43;;;5.10;;
72037;SDS011;59900;50.788;12.904;2022-08-03T05:58:08;10.57;;;4.80;;
72037;SDS011;59900;50.788;12.904;2022-08-03T06:00:34;7.63;;;4.77;;
72037;SDS011;59900;50.788;12.904;2022-08-03T06:02:59;6.90;;;4.90;;
72037;SDS011;59900;50.788;12.904;2022-08-03T06:05:24;7.73;;;4.40;;
72037;SDS011;59900;50.788;12.904;2022-08-03T06:07:52;8.95;;;5.22;;
72037;SDS011;59900;50.788;12.904;2022-08-03T06:10:17;6.80;;;4.50;;
72037;SDS011;59900;50.788;12.904;2022-08-03T06:12:42;6.87;;;4.63;;
72037;SDS011;59900;50.788;12.904;2022-08-03T06:15:11;7.07;;;5.07;;
72037;SDS011;59900;50.788;12.904;2022-08-03T06:17:43;6.77;;;4.50;;
72037;SDS011;59900;50.788;12.904;2022-08-03T06:20:14;7.53;;;4.30;;
72037;SDS011;59900;50.788;12.904;2022-08-03T06:22:41;7.95;;;4.78;;
72037;SDS011;59900;50.788;12.904;2022-08-03T06:25:06;6.67;;;4.87;;
72037;SDS011;59900;50.788;12.904;2022-08-03T06:27:32;8.43;;;5.10;;
72037;SDS011;59900;50.788;12.904;2022-08-03T06:29:57;9.50;;;4.63;;
72037;SDS011;59900;50.788;12.904;2022-08-03T06:32:22;7.93;;;4.83;;
72037;SDS011;59900;50.788;12.904;2022-08-03T06:34:48;7.60;;;5.10;;
72037;SDS011;59900;50.788;12.904;2022-08-03T06:37:13;8.13;;;4.93;;
72037;SDS011;59900;50.788;12.904;2022-08-03T06:39:38;7.00;;;4.50;;
72037;SDS011;59900;50.788;12.904;2022-08-03T06:42:04;6.63;;;4.33;;
72037;SDS011;59900;50.788;12.904;2022-08-03T06:44:29;11.70;;;4.80;;
72037;SDS011;59900;50.788;12.904;2022-08-03T06:46:54;7.90;;;4.13;;
72037;SDS011;59900;50.788;12.904;2022-08-03T06:49:20;6.97;;;4.00;;
72037;SDS011;59900;50.788;12.904;2022-08-03T06:51:45;7.63;;;4.50;;
72037;SDS011;59900;50.788;12.904;2022-08-03T06:54:10;6.50;;;4.40;;
72037;SDS011;59900;50.788;12.904;2022-08-03T06:56:36;6.43;;;4.33;;
72037;SDS011;59900;50.788;12.904;2022-08-03T06:59:01;7.60;;;4.40;;
72037;SDS011;59900;50.788;12.904;2022-08-03T07:01:27;9.07;;;4.57;;
72037;SDS011;59900;50.788;12.904;2022-08-03T07:03:52;7.50;;;4.07;;
72037;SDS011;59900;50.788;12.904;2022-08-03T07:06:18;7.10;;;4.43;;
72037;SDS011;59900;50.788;12.904;2022-08-03T07:08:44;9.03;;;4.10;;
72037;SDS011;59900;50.788;12.904;2022-08-03T07:11:09;8.70;;;4.10;;
72037;SDS011;59900;50.788;12.904;2022-08-03T07:13:34;8.17;;;4.00;;
72037;SDS011;59900;50.788;12.904;2022-08-03T07:15:59;5.73;;;3.80;;
72037;SDS011;59900;50.788;12.904;2022-08-03T07:18:25;6.87;;;3.53;;
72037;SDS011;59900;50.788;12.904;2022-08-03T07:20:50;9.03;;;3.60;;
72037;SDS011;59900;50.788;12.904;2022-08-03T07:23:15;6.33;;;3.70;;
72037;SDS011;59900;50.788;12.904;2022-08-03T07:25:41;6.07;;;3.28;;
72037;SDS011;59900;50.788;12.904;2022-08-03T07:28:06;6.47;;;3.20;;
72037;SDS011;59900;50.788;12.904;2022-08-03T07:30:32;6.00;;;3.60;;
72037;SDS011;59900;50.788;12.904;2022-08-03T07:32:57;11.23;;;4.13;;
72037;SDS011;59900;50.788;12.904;2022-08-03T07:35:23;7.33;;;3.63;;
72037;SDS011;59900;50.788;12.904;2022-08-03T07:37:48;6.07;;;3.40;;
72037;SDS011;59900;50.788;12.904;2022-08-03T07:40:13;6.10;;;3.20;;
72037;SDS011;59900;50.788;12.904;2022-08-03T07:42:38;6.33;;;3.43;;
72037;SDS011;59900;50.788;12.904;2022-08-03T07:45:04;5.60;;;3.00;;
72037;SDS011;59900;50.788;12.904;2022-08-03T07:47:30;6.22;;;2.70;;
72037;SDS011;59900;50.788;12.904;2022-08-03T07:49:55;5.20;;;2.70;;
72037;SDS011;59900;50.788;12.904;2022-08-03T07:52:21;6.93;;;4.33;;
72037;SDS011;59900;50.788;12.904;2022-08-03T07:55:05;5.47;;;3.20;;
72037;SDS011;59900;50.788;12.904;2022-08-03T07:57:31;5.43;;;3.30;;
72037;SDS011;59900;50.788;12.904;2022-08-03T07:59:57;7.63;;;3.20;;
72037;SDS011;59900;50.788;12.904;2022-08-03T08:02:22;6.40;;;2.90;;
72037;SDS011;59900;50.788;12.904;2022-08-03T08:04:47;6.40;;;2.93;;
72037;SDS011;59900;50.788;12.904;2022-08-03T08:07:13;4.90;;;2.70;;
72037;SDS011;59900;50.788;12.904;2022-08-03T08:09:38;5.93;;;3.30;;
72037;SDS011;59900;50.788;12.904;2022-08-03T08:12:03;5.23;;;2.63;;
72037;SDS011;59900;50.788;12.904;2022-08-03T08:14:29;5.63;;;2.92;;
72037;SDS011;59900;50.788;12.904;2022-08-03T08:16:54;7.33;;;3.20;;
72037;SDS011;59900;50.788;12.904;2022-08-03T08:19:20;5.30;;;2.77;;
72037;SDS011;59900;50.788;12.904;2022-08-03T08:21:45;8.53;;;3.10;;
72037;SDS011;59900;50.788;12.904;2022-08-03T08:24:10;6.27;;;2.80;;
72037;SDS011;59900;50.788;12.904;2022-08-03T08:26:35;9.20;;;3.20;;
72037;SDS011;59900;50.788;12.904;2022-08-03T08:29:01;6.45;;;2.95;;
72037;SDS011;59900;50.788;12.904;2022-08-03T08:31:27;5.80;;;3.42;;
72037;SDS011;59900;50.788;12.904;2022-08-03T08:33:52;6.70;;;3.30;;
72037;SDS011;59900;50.788;12.904;2022-08-03T08:36:18;6.90;;;3.97;;
72037;SDS011;59900;50.788;12.904;2022-08-03T08:38:43;6.20;;;3.07;;
72037;SDS011;59900;50.788;12.904;2022-08-03T08:41:12;8.60;;;5.47;;
72037;SDS011;59900;50.788;12.904;2022-08-03T08:43:38;6.30;;;3.30;;
72037;SDS011;59900;50.788;12.904;2022-08-03T08:46:04;11.25;;;6.80;;
72037;SDS011;59900;50.788;12.904;2022-08-03T08:48:32;5.00;;;2.73;;
72037;SDS011;59900;50.788;12.904;2022-08-03T08:51:00;6.22;;;2.60;;
72037;SDS011;59900;50.788;12.904;2022-08-03T08:53:26;6.30;;;2.53;;
72037;SDS011;59900;50.788;12.904;2022-08-03T08:55:52;4.70;;;2.90;;
72037;SDS011;59900;50.788;12.904;2022-08-03T08:58:22;7.63;;;3.10;;
72037;SDS011;59900;50.788;12.904;2022-08-03T09:00:48;6.72;;;3.30;;
72037;SDS011;59900;50.788;12.904;2022-08-03T09:03:14;4.80;;;2.90;;
72037;SDS011;59900;50.788;12.904;2022-08-03T09:05:42;7.63;;;2.90;;
72037;SDS011;59900;50.788;12.904;2022-08-03T09:08:07;9.57;;;3.17;;
72037;SDS011;59900;50.788;12.904;2022-08-03T09:10:33;5.22;;;3.05;;
72037;SDS011;59900;50.788;12.904;2022-08-03T09:12:59;6.03;;;2.50;;
72037;SDS011;59900;50.788;12.904;2022-08-03T09:15:25;5.65;;;2.92;;
72037;SDS011;59900;50.788;12.904;2022-08-03T09:17:53;4.38;;;2.60;;
72037;SDS011;59900;50.788;12.904;2022-08-03T09:20:21;6.20;;;3.20;;
72037;SDS011;59900;50.788;12.904;2022-08-03T09:22:55;5.95;;;3.33;;
72037;SDS011;59900;50.788;12.904;2022-08-03T09:25:32;5.32;;;2.63;;
72037;SDS011;59900;50.788;12.904;2022-08-03T09:28:03;6.05;;;2.78;;
72037;SDS011;59900;50.788;12.904;2022-08-03T09:30:37;7.55;;;3.70;;
72037;SDS011;59900;50.788;12.904;2022-08-03T09:33:05;7.37;;;2.60;;
72037;SDS011;59900;50.788;12.904;2022-08-03T09:35:43;5.10;;;2.58;;
72037;SDS011;59900;50.788;12.904;2022-08-03T09:38:14;4.65;;;2.80;;
72037;SDS011;59900;50.788;12.904;2022-08-03T09:40:50;5.15;;;2.50;;
72037;SDS011;59900;50.788;12.904;2022-08-03T09:43:15;6.07;;;2.47;;
72037;SDS011;59900;50.788;12.904;2022-08-03T09:45:41;4.70;;;2.60;;
72037;SDS011;59900;50.788;12.904;2022-08-03T09:50:55;6.88;;;2.35;;
72037;SDS011;59900;50.788;12.904;2022-08-03T09:53:22;18.65;;;9.45;;
72037;SDS011;59900;50.788;12.904;2022-08-03T09:56:09;6.23;;;3.50;;
72037;SDS011;59900;50.788;12.904;2022-08-03T09:58:42;5.95;;;2.58;;
72037;SDS011;59900;50.788;12.904;2022-08-03T10:01:10;6.07;;;2.22;;
72037;SDS011;59900;50.788;12.904;2022-08-03T10:03:36;6.03;;;2.30;;
72037;SDS011;59900;50.788;12.904;2022-08-03T10:06:13;5.68;;;2.28;;
72037;SDS011;59900;50.788;12.904;2022-08-03T10:09:05;7.43;;;2.40;;
72037;SDS011;59900;50.788;12.904;2022-08-03T10:11:36;6.75;;;2.35;;
72037;SDS011;59900;50.788;12.904;2022-08-03T10:14:03;6.73;;;2.33;;
72037;SDS011;59900;50.788;12.904;2022-08-03T10:16:37;4.93;;;2.15;;
72037;SDS011;59900;50.788;12.904;2022-08-03T10:19:04;4.30;;;2.10;;
72037;SDS011;59900;50.788;12.904;2022-08-03T10:21:32;5.40;;;2.30;;
72037;SDS011;59900;50.788;12.904;2022-08-03T10:24:03;4.45;;;2.17;;
72037;SDS011;59900;50.788;12.904;2022-08-03T10:26:30;3.83;;;2.23;;
72037;SDS011;59900;50.788;12.904;2022-08-03T10:28:58;4.55;;;2.40;;
72037;SDS011;59900;50.788;12.904;2022-08-03T10:31:28;3.47;;;1.90;;
72037;SDS011;59900;50.788;12.904;2022-08-03T10:33:59;5.63;;;2.40;;
72037;SDS011;59900;50.788;12.904;2022-08-03T10:36:26;3.03;;;1.88;;
72037;SDS011;59900;50.788;12.904;2022-08-03T10:38:55;4.70;;;2.30;;
72037;SDS011;59900;50.788;12.904;2022-08-03T10:41:22;4.38;;;2.20;;
72037;SDS011;59900;50.788;12.904;2022-08-03T10:44:25;4.07;;;2.17;;
72037;SDS011;59900;50.788;12.904;2022-08-03T10:46:43;4.82;;;2.35;;
72037;SDS011;59900;50.788;12.904;2022-08-03T10:49:13;4.38;;;1.92;;
72037;SDS011;59900;50.788;12.904;2022-08-03T10:51:44;4.35;;;2.20;;
72037;SDS011;59900;50.788;12.904;2022-08-03T10:54:36;4.63;;;2.35;;
72037;SDS011;59900;50.788;12.904;2022-08-03T11:00:10;4.82;;;2.20;;
72037;SDS011;59900;50.788;12.904;2022-08-03T11:05:31;3.53;;;1.90;;
72037;SDS011;59900;50.788;12.904;2022-08-03T11:08:16;3.78;;;2.25;;
72037;SDS011;59900;50.788;12.904;2022-08-03T11:10:43;3.97;;;2.10;;
72037;SDS011;59900;50.788;12.904;2022-08-03T11:13:08;3.80;;;2.10;;
72037;SDS011;59900;50.788;12.904;2022-08-03T11:15:38;4.38;;;2.20;;
72037;SDS011;59900;50.788;12.904;2022-08-03T11:18:08;9.80;;;3.20;;
72037;SDS011;59900;50.788;12.904;2022-08-03T11:23:13;4.05;;;2.20;;
72037;SDS011;59900;50.788;12.904;2022-08-03T11:28:34;4.68;;;2.40;;
72037;SDS011;59900;50.788;12.904;2022-08-03T11:34:01;4.18;;;2.60;;
72037;SDS011;59900;50.788;12.904;2022-08-03T11:36:28;5.75;;;2.40;;
72037;SDS011;59900;50.788;12.904;2022-08-03T11:39:12;5.67;;;2.50;;
72037;SDS011;59900;50.788;12.904;2022-08-03T11:41:38;4.60;;;2.50;;
72037;SDS011;59900;50.788;12.904;2022-08-03T11:44:03;3.80;;;2.40;;
72037;SDS011;59900;50.788;12.904;2022-08-03T11:46:28;4.67;;;2.60;;
72037;SDS011;59900;50.788;12.904;2022-08-03T11:49:04;5.80;;;2.50;;
72037;SDS011;59900;50.788;12.904;2022-08-03T11:51:31;4.30;;;2.40;;
72037;SDS011;59900;50.788;12.904;2022-08-03T11:54:03;9.40;;;3.20;;
72037;SDS011;59900;50.788;12.904;2022-08-03T11:56:43;5.03;;;2.43;;
72037;SDS011;59900;50.788;12.904;2022-08-03T11:59:10;5.45;;;2.80;;
72037;SDS011;59900;50.788;12.904;2022-08-03T12:01:35;5.27;;;2.47;;
72037;SDS011;59900;50.788;12.904;2022-08-03T12:04:02;5.10;;;2.70;;
72037;SDS011;59900;50.788;12.904;2022-08-03T12:06:31;5.05;;;2.40;;
72037;SDS011;59900;50.788;12.904;2022-08-03T12:09:16;4.40;;;2.38;;
72037;SDS011;59900;50.788;12.904;2022-08-03T12:11:42;5.20;;;2.30;;
72037;SDS011;59900;50.788;12.904;2022-08-03T12:14:07;3.73;;;2.00;;
72037;SDS011;59900;50.788;12.904;2022-08-03T12:16:40;4.25;;;2.70;;
72037;SDS011;59900;50.788;12.904;2022-08-03T12:19:11;5.47;;;2.63;;
72037;SDS011;59900;50.788;12.904;2022-08-03T12:21:44;5.57;;;2.50;;
72037;SDS011;59900;50.788;12.904;2022-08-03T12:24:11;4.38;;;2.30;;
72037;SDS011;59900;50.788;12.904;2022-08-03T12:26:46;4.30;;;2.40;;
72037;SDS011;59900;50.788;12.904;2022-08-03T12:29:20;7.68;;;2.65;;
72037;SDS011;59900;50.788;12.904;2022-08-03T12:31:46;4.55;;;2.58;;
72037;SDS011;59900;50.788;12.904;2022-08-03T12:34:12;5.00;;;2.30;;
72037;SDS011;59900;50.788;12.904;2022-08-03T12:36:50;3.67;;;2.10;;
72037;SDS011;59900;50.788;12.904;2022-08-03T12:39:21;6.75;;;2.40;;
72037;SDS011;59900;50.788;12.904;2022-08-03T12:41:51;5.38;;;2.70;;
72037;SDS011;59900;50.788;12.904;2022-08-03T12:44:27;8.27;;;2.33;;
72037;SDS011;59900;50.788;12.904;2022-08-03T12:46:58;3.60;;;2.30;;
72037;SDS011;59900;50.788;12.904;2022-08-03T12:49:25;4.05;;;2.35;;
72037;SDS011;59900;50.788;12.904;2022-08-03T12:54:17;7.40;;;2.70;;
72037;SDS011;59900;50.788;12.904;2022-08-03T12:57:02;5.38;;;2.70;;
72037;SDS011;59900;50.788;12.904;2022-08-03T12:59:30;8.43;;;3.00;;
72037;SDS011;59900;50.788;12.904;2022-08-03T13:01:57;6.30;;;2.53;;
72037;SDS011;59900;50.788;12.904;2022-08-03T13:04:26;6.47;;;2.40;;
72037;SDS011;59900;50.788;12.904;2022-08-03T13:09:40;4.30;;;2.70;;
72037;SDS011;59900;50.788;12.904;2022-08-03T13:12:16;4.67;;;2.77;;
72037;SDS011;59900;50.788;12.904;2022-08-03T13:14:44;5.10;;;2.88;;
72037;SDS011;59900;50.788;12.904;2022-08-03T13:17:11;3.97;;;2.60;;
72037;SDS011;59900;50.788;12.904;2022-08-03T13:19:37;6.83;;;2.47;;
72037;SDS011;59900;50.788;12.904;2022-08-03T13:25:01;4.10;;;2.50;;
72037;SDS011;59900;50.788;12.904;2022-08-03T13:27:27;3.95;;;2.47;;
72037;SDS011;59900;50.788;12.904;2022-08-03T13:29:53;4.57;;;2.42;;
72037;SDS011;59900;50.788;12.904;2022-08-03T13:32:22;5.60;;;2.30;;
72037;SDS011;59900;50.788;12.904;2022-08-03T13:35:28;4.65;;;2.70;;
72037;SDS011;59900;50.788;12.904;2022-08-03T13:37:53;5.57;;;2.83;;
72037;SDS011;59900;50.788;12.904;2022-08-03T13:40:18;4.30;;;2.27;;
72037;SDS011;59900;50.788;12.904;2022-08-03T13:42:44;5.53;;;2.60;;
72037;SDS011;59900;50.788;12.904;2022-08-03T13:45:09;5.13;;;2.90;;
72037;SDS011;59900;50.788;12.904;2022-08-03T13:47:35;4.10;;;2.28;;
72037;SDS011;59900;50.788;12.904;2022-08-03T13:50:01;5.28;;;2.60;;
72037;SDS011;59900;50.788;12.904;2022-08-03T13:52:33;3.92;;;2.45;;
72037;SDS011;59900;50.788;12.904;2022-08-03T13:55:00;5.43;;;2.40;;
72037;SDS011;59900;50.788;12.904;2022-08-03T13:57:26;3.95;;;2.33;;
72037;SDS011;59900;50.788;12.904;2022-08-03T13:59:52;5.88;;;3.03;;
72037;SDS011;59900;50.788;12.904;2022-08-03T14:02:17;5.03;;;2.70;;
72037;SDS011;59900;50.788;12.904;2022-08-03T14:04:43;6.80;;;2.57;;
72037;SDS011;59900;50.788;12.904;2022-08-03T14:07:08;3.90;;;2.33;;
72037;SDS011;59900;50.788;12.904;2022-08-03T14:09:33;4.10;;;2.30;;
72037;SDS011;59900;50.788;12.904;2022-08-03T14:11:59;4.63;;;2.40;;
72037;SDS011;59900;50.788;12.904;2022-08-03T14:14:24;4.37;;;2.47;;
72037;SDS011;59900;50.788;12.904;2022-08-03T14:16:49;4.37;;;2.40;;
72037;SDS011;59900;50.788;12.904;2022-08-03T14:19:18;5.73;;;2.63;;
72037;SDS011;59900;50.788;12.904;2022-08-03T14:21:46;3.72;;;2.38;;
72037;SDS011;59900;50.788;12.904;2022-08-03T14:24:11;6.40;;;2.90;;
72037;SDS011;59900;50.788;12.904;2022-08-03T14:26:36;4.83;;;2.83;;
72037;SDS011;59900;50.788;12.904;2022-08-03T14:29:01;4.20;;;2.90;;
72037;SDS011;59900;50.788;12.904;2022-08-03T14:31:28;14.00;;;7.97;;
72037;SDS011;59900;50.788;12.904;2022-08-03T14:33:54;11.27;;;8.60;;
72037;SDS011;59900;50.788;12.904;2022-08-03T14:36:19;7.63;;;3.40;;
72037;SDS011;59900;50.788;12.904;2022-08-03T14:38:44;5.10;;;2.63;;
72037;SDS011;59900;50.788;12.904;2022-08-03T14:41:10;6.93;;;2.90;;
72037;SDS011;59900;50.788;12.904;2022-08-03T14:43:35;4.03;;;2.53;;
72037;SDS011;59900;50.788;12.904;2022-08-03T14:46:00;4.77;;;2.87;;
72037;SDS011;59900;50.788;12.904;2022-08-03T14:48:26;4.07;;;2.70;;
72037;SDS011;59900;50.788;12.904;2022-08-03T14:50:51;7.72;;;2.78;;
72037;SDS011;59900;50.788;12.904;2022-08-03T14:53:18;5.55;;;2.83;;
72037;SDS011;59900;50.788;12.904;2022-08-03T14:55:44;4.83;;;2.87;;
72037;SDS011;59900;50.788;12.904;2022-08-03T14:58:13;5.70;;;2.73;;
72037;SDS011;59900;50.788;12.904;2022-08-03T15:00:41;4.95;;;2.40;;
72037;SDS011;59900;50.788;12.904;2022-08-03T15:03:06;6.27;;;2.63;;
72037;SDS011;59900;50.788;12.904;2022-08-03T15:05:32;5.57;;;2.97;;
72037;SDS011;59900;50.788;12.904;2022-08-03T15:07:57;5.50;;;2.50;;
72037;SDS011;59900;50.788;12.904;2022-08-03T15:10:22;4.40;;;2.60;;
72037;SDS011;59900;50.788;12.904;2022-08-03T15:12:47;4.03;;;2.23;;
72037;SDS011;59900;50.788;12.904;2022-08-03T15:15:13;4.80;;;2.90;;
72037;SDS011;59900;50.788;12.904;2022-08-03T15:17:38;5.00;;;2.43;;